Time;durP1;ratioP1;P1;durP2;ratioP2;P2;SDS_P1;SDS_P2;PMS_P1;PMS_P2;Temp;Humidity;BMP_temperature;BMP_pressure;BME280_temperature;BME280_humidity;BME280_pressure;Samples;Min_cycle;Max_cycle;Signal;HPM_P1;HPM_P2
2023/05/30 00:00:15;;;;;;;9.60;3.70;;;12.90;99.90;;;;;;5050834;28;20422;-72
2023/05/30 00:02:44;;;;;;;12.60;5.22;;;12.90;99.90;;;;;;5051570;28;20024;-72
2023/05/30 00:05:11;;;;;;;12.90;4.43;;;12.90;99.90;;;;;;5050996;28;20025;-72
2023/05/30 00:07:37;;;;;;;16.13;4.95;;;12.80;99.90;;;;;;5051454;28;20079;-72
2023/05/30 00:10:03;;;;;;;19.67;5.30;;;12.70;99.90;;;;;;5050890;28;20052;-72
2023/05/30 00:12:29;;;;;;;15.35;4.65;;;12.70;99.90;;;;;;5050507;28;20025;-71
2023/05/30 00:14:55;;;;;;;18.05;5.05;;;12.50;99.90;;;;;;5050954;28;20021;-72
2023/05/30 00:17:22;;;;;;;13.05;5.28;;;12.40;99.90;;;;;;5050531;28;20040;-71
2023/05/30 00:19:48;;;;;;;13.90;4.80;;;12.30;99.90;;;;;;5050868;28;20029;-71
2023/05/30 00:22:14;;;;;;;13.85;5.03;;;12.30;99.90;;;;;;5050408;28;20028;-72
2023/05/30 00:24:40;;;;;;;16.60;5.45;;;12.10;99.90;;;;;;5050934;28;20085;-71
2023/05/30 00:27:06;;;;;;;11.63;4.68;;;12.10;99.90;;;;;;5050076;28;20130;-72
2023/05/30 00:29:31;;;;;;;14.52;5.00;;;12.10;99.90;;;;;;5050588;28;20438;-72
2023/05/30 00:31:57;;;;;;;13.05;4.40;;;12.00;99.90;;;;;;5051047;28;20029;-71
2023/05/30 00:34:23;;;;;;;12.80;4.65;;;12.00;99.90;;;;;;5050456;28;20055;-72
2023/05/30 00:36:49;;;;;;;12.35;4.50;;;11.90;99.90;;;;;;5050784;28;20025;-72
2023/05/30 00:39:15;;;;;;;15.07;4.88;;;11.80;99.90;;;;;;5049867;28;20025;-72
2023/05/30 00:41:40;;;;;;;13.75;4.72;;;11.80;99.90;;;;;;5050874;28;20366;-72
2023/05/30 00:44:07;;;;;;;13.98;4.68;;;11.80;99.90;;;;;;5049891;28;20059;-72
2023/05/30 00:46:32;;;;;;;10.55;5.05;;;11.70;99.90;;;;;;5050869;28;20040;-72
2023/05/30 00:48:59;;;;;;;13.57;4.18;;;11.70;99.90;;;;;;5050623;28;20037;-72
2023/05/30 00:51:28;;;;;;;13.75;4.75;;;11.60;99.90;;;;;;5048850;28;20098;-71
2023/05/30 00:53:55;;;;;;;11.23;4.10;;;11.60;99.90;;;;;;5050734;28;20036;-71
2023/05/30 00:56:23;;;;;;;9.57;4.47;;;11.50;99.90;;;;;;5050291;28;20036;-73
2023/05/30 00:58:50;;;;;;;13.25;4.65;;;11.50;99.90;;;;;;5050836;28;20429;-71
2023/05/30 01:01:15;;;;;;;10.55;4.90;;;11.50;99.90;;;;;;5050365;28;20036;-72
2023/05/30 01:03:42;;;;;;;12.20;4.68;;;11.50;99.90;;;;;;5050209;28;20029;-71
2023/05/30 01:06:09;;;;;;;13.45;4.72;;;11.50;99.90;;;;;;5049829;28;20104;-72
2023/05/30 01:08:34;;;;;;;13.02;4.93;;;11.40;99.90;;;;;;5050357;28;20029;-71
2023/05/30 01:11:41;;;;;;;11.05;4.95;;;11.40;99.90;;;;;;5049142;28;20036;-72
2023/05/30 01:14:17;;;;;;;14.18;5.00;;;11.40;99.90;;;;;;5026673;28;20115;-71
2023/05/30 01:16:49;;;;;;;12.75;4.63;;;11.30;99.90;;;;;;5050174;28;20045;-70
2023/05/30 01:19:47;;;;;;;10.68;4.75;;;11.30;99.90;;;;;;5049665;28;20116;-71
2023/05/30 01:22:51;;;;;;;9.13;4.68;;;11.30;99.90;;;;;;5040003;28;20112;-70
2023/05/30 01:25:38;;;;;;;14.30;4.93;;;11.30;99.90;;;;;;5048972;28;20467;-71
2023/05/30 01:28:13;;;;;;;11.80;4.57;;;11.20;99.90;;;;;;5049943;28;20235;-72
2023/05/30 01:30:45;;;;;;;11.15;4.60;;;11.20;99.90;;;;;;5050253;28;20079;-71
2023/05/30 01:33:13;;;;;;;11.90;5.03;;;11.20;99.90;;;;;;5048440;28;20126;-71
2023/05/30 01:35:41;;;;;;;13.10;4.80;;;11.20;99.90;;;;;;5049713;28;20029;-71
2023/05/30 01:38:07;;;;;;;16.60;4.60;;;11.10;99.90;;;;;;5049568;28;20477;-71
2023/05/30 01:40:33;;;;;;;14.27;5.07;;;11.10;99.90;;;;;;5049682;28;20056;-70
2023/05/30 01:43:07;;;;;;;17.50;5.53;;;11.10;99.90;;;;;;5049823;28;20439;-71
2023/05/30 01:45:50;;;;;;;15.27;5.15;;;11.10;99.90;;;;;;5048601;28;20496;-70
2023/05/30 01:48:29;;;;;;;14.70;4.75;;;11.10;99.90;;;;;;5049386;28;20110;-71
2023/05/30 01:50:58;;;;;;;13.07;5.47;;;11.10;99.90;;;;;;5050192;28;20029;-70
2023/05/30 01:53:32;;;;;;;13.57;4.40;;;11.20;99.90;;;;;;5049565;28;20049;-71
2023/05/30 01:56:00;;;;;;;13.27;4.47;;;11.10;99.90;;;;;;5050317;28;20099;-70
2023/05/30 01:58:27;;;;;;;8.02;3.97;;;11.00;99.90;;;;;;5049525;28;20028;-70
2023/05/30 02:00:55;;;;;;;17.95;5.32;;;11.00;99.90;;;;;;5049908;28;20063;-71
2023/05/30 02:03:24;;;;;;;10.10;4.57;;;11.00;99.90;;;;;;5049498;28;20028;-71
2023/05/30 02:05:49;;;;;;;10.45;5.05;;;10.90;99.90;;;;;;5049833;28;20033;-70
2023/05/30 02:08:15;;;;;;;13.25;4.68;;;10.90;99.90;;;;;;5049281;28;20029;-71
2023/05/30 02:10:41;;;;;;;8.63;4.90;;;11.00;99.90;;;;;;5049589;28;20060;-70
2023/05/30 02:13:07;;;;;;;11.80;4.55;;;11.10;99.90;;;;;;5049376;28;20108;-72
2023/05/30 02:15:32;;;;;;;8.25;4.47;;;11.10;99.90;;;;;;5049404;28;20178;-69
2023/05/30 02:17:59;;;;;;;12.05;4.40;;;11.00;99.90;;;;;;5049832;28;20110;-71
2023/05/30 02:20:25;;;;;;;7.65;4.32;;;11.10;99.90;;;;;;5049037;28;20136;-72
2023/05/30 02:22:51;;;;;;;10.77;4.45;;;11.00;99.90;;;;;;5049683;28;20100;-72
2023/05/30 02:25:19;;;;;;;11.05;5.05;;;11.00;99.90;;;;;;5048571;28;20114;-72
2023/05/30 02:27:47;;;;;;;11.00;4.68;;;11.00;99.90;;;;;;5049829;28;20044;-72
2023/05/30 02:30:13;;;;;;;9.48;4.75;;;11.00;99.90;;;;;;5048993;28;20033;-72
2023/05/30 02:32:39;;;;;;;15.52;5.78;;;11.00;99.90;;;;;;5049334;28;20055;-72
2023/05/30 02:35:05;;;;;;;12.10;5.20;;;10.90;99.90;;;;;;5049377;28;20378;-72
2023/05/30 02:37:31;;;;;;;10.13;4.78;;;10.90;99.90;;;;;;5051724;28;20029;-72
2023/05/30 02:39:57;;;;;;;11.10;4.30;;;10.80;99.90;;;;;;5052900;28;20542;-72
2023/05/30 02:42:23;;;;;;;9.60;3.95;;;10.80;99.90;;;;;;5051811;28;20047;-72
2023/05/30 02:44:48;;;;;;;10.98;5.03;;;10.80;99.90;;;;;;5053041;28;20037;-72
2023/05/30 02:47:14;;;;;;;9.75;4.72;;;10.70;99.90;;;;;;5052221;28;20361;-72
2023/05/30 02:49:40;;;;;;;10.68;5.35;;;10.70;99.90;;;;;;5052694;28;20092;-72
2023/05/30 02:52:06;;;;;;;12.65;5.40;;;10.70;99.90;;;;;;5052592;28;20025;-71
2023/05/30 02:54:31;;;;;;;14.63;5.05;;;10.70;99.90;;;;;;5052359;28;20127;-71
2023/05/30 02:56:57;;;;;;;13.02;4.95;;;10.80;99.90;;;;;;5052329;28;20107;-71
2023/05/30 02:59:23;;;;;;;10.23;4.82;;;10.70;99.90;;;;;;5051958;28;20036;-70
2023/05/30 03:01:49;;;;;;;13.27;5.07;;;10.70;99.90;;;;;;5052639;28;20063;-70
2023/05/30 03:04:14;;;;;;;16.35;5.47;;;10.70;99.90;;;;;;5052223;28;20485;-70
2023/05/30 03:06:41;;;;;;;11.57;5.82;;;10.70;99.90;;;;;;5052613;28;20116;-71
2023/05/30 03:09:07;;;;;;;12.65;5.43;;;10.70;99.90;;;;;;5052383;28;20423;-70
2023/05/30 03:11:32;;;;;;;10.50;5.18;;;10.80;99.90;;;;;;5052074;28;20131;-69
2023/05/30 03:13:58;;;;;;;7.82;4.57;;;10.80;99.90;;;;;;5052534;28;20021;-70
2023/05/30 03:16:24;;;;;;;10.25;4.88;;;10.80;99.90;;;;;;5051612;28;20339;-70
2023/05/30 03:18:49;;;;;;;12.40;4.95;;;10.80;99.90;;;;;;5052690;28;20046;-70
2023/05/30 03:21:16;;;;;;;14.82;5.32;;;10.70;99.90;;;;;;5051673;28;20025;-70
2023/05/30 03:23:41;;;;;;;14.43;5.63;;;10.70;99.90;;;;;;5052409;28;20056;-70
2023/05/30 03:26:08;;;;;;;11.00;5.22;;;10.70;99.90;;;;;;5051889;28;20470;-71
2023/05/30 03:28:35;;;;;;;11.13;4.80;;;10.70;99.90;;;;;;5051442;28;20045;-71
2023/05/30 03:31:00;;;;;;;15.32;5.43;;;10.60;99.90;;;;;;5052043;28;20036;-70
2023/05/30 03:33:28;;;;;;;13.07;4.82;;;10.50;99.90;;;;;;5051625;28;20025;-71
2023/05/30 03:35:54;;;;;;;11.25;5.75;;;10.50;99.90;;;;;;5052213;28;20087;-71
2023/05/30 03:38:21;;;;;;;9.07;4.82;;;10.50;99.90;;;;;;5051095;28;20025;-71
2023/05/30 03:40:47;;;;;;;14.90;5.70;;;10.60;99.90;;;;;;5052119;28;20032;-71
2023/05/30 03:43:12;;;;;;;12.98;5.18;;;10.60;99.90;;;;;;5051835;28;20029;-72
2023/05/30 03:45:38;;;;;;;11.23;5.18;;;10.60;99.90;;;;;;5051646;28;20033;-71
2023/05/30 03:48:04;;;;;;;12.73;5.25;;;10.50;99.90;;;;;;5051570;28;20025;-71
2023/05/30 03:50:30;;;;;;;10.15;5.53;;;10.60;99.90;;;;;;5051188;28;20129;-71
2023/05/30 03:52:55;;;;;;;11.70;5.18;;;10.60;99.90;;;;;;5051806;28;20028;-71
2023/05/30 03:55:21;;;;;;;10.20;5.13;;;10.50;99.90;;;;;;5051139;28;20450;-71
2023/05/30 03:57:47;;;;;;;13.98;5.05;;;10.50;99.90;;;;;;5051717;28;20036;-71
2023/05/30 04:00:13;;;;;;;16.95;5.78;;;10.40;99.90;;;;;;5051418;28;20124;-72
2023/05/30 04:02:39;;;;;;;11.27;5.10;;;10.30;99.90;;;;;;5051455;28;20528;-71
2023/05/30 04:05:05;;;;;;;16.20;5.70;;;10.40;99.90;;;;;;5051542;28;20053;-71
2023/05/30 04:07:35;;;;;;;14.10;6.00;;;10.50;99.90;;;;;;5050816;28;20028;-70
2023/05/30 04:10:03;;;;;;;17.13;6.43;;;10.50;99.90;;;;;;5051191;28;20032;-70
2023/05/30 04:12:29;;;;;;;18.27;6.72;;;10.60;99.90;;;;;;5050968;28;20029;-70
2023/05/30 04:14:55;;;;;;;15.25;6.32;;;10.70;99.90;;;;;;5050800;28;20108;-71
2023/05/30 04:17:21;;;;;;;12.60;5.57;;;10.70;99.90;;;;;;5050181;28;20542;-71
2023/05/30 04:19:47;;;;;;;14.05;5.80;;;10.80;99.90;;;;;;5050883;28;20021;-72
2023/05/30 04:22:13;;;;;;;13.70;5.93;;;10.70;99.90;;;;;;5051188;28;20031;-72
2023/05/30 04:24:39;;;;;;;12.68;5.75;;;10.80;99.90;;;;;;5050741;28;20065;-72
2023/05/30 04:27:05;;;;;;;15.63;5.22;;;10.70;99.90;;;;;;5051024;28;20450;-72
2023/05/30 04:29:31;;;;;;;10.30;5.30;;;10.80;99.90;;;;;;5050303;28;20067;-72
2023/05/30 04:31:56;;;;;;;12.65;5.72;;;10.80;99.90;;;;;;5050866;28;20161;-72
2023/05/30 04:34:24;;;;;;;12.00;6.20;;;10.70;99.90;;;;;;5050056;28;20037;-72
2023/05/30 04:36:52;;;;;;;20.27;6.38;;;10.70;99.90;;;;;;5049463;28;20037;-72
2023/05/30 04:39:17;;;;;;;12.00;5.95;;;10.60;99.90;;;;;;5050336;28;20035;-73
2023/05/30 04:41:43;;;;;;;11.40;5.50;;;10.50;99.90;;;;;;5050822;28;20021;-72
2023/05/30 04:44:09;;;;;;;12.07;6.18;;;10.50;99.90;;;;;;5050533;28;20109;-72
2023/05/30 04:46:35;;;;;;;9.13;5.25;;;10.40;99.90;;;;;;5050224;28;20036;-70
2023/05/30 04:49:02;;;;;;;13.23;4.90;;;10.50;99.90;;;;;;5050346;28;20466;-70
2023/05/30 04:51:28;;;;;;;11.73;5.32;;;10.50;99.90;;;;;;5049808;28;20060;-70
2023/05/30 04:53:54;;;;;;;12.60;6.07;;;10.50;99.90;;;;;;5049361;28;20021;-70
2023/05/30 04:56:20;;;;;;;13.48;5.70;;;10.50;99.90;;;;;;5050083;28;20028;-72
2023/05/30 04:58:48;;;;;;;13.95;5.82;;;10.60;99.90;;;;;;5049921;28;20060;-70
2023/05/30 05:01:14;;;;;;;16.08;5.53;;;10.70;99.90;;;;;;5050490;28;20045;-70
2023/05/30 05:03:40;;;;;;;14.13;5.40;;;10.90;99.90;;;;;;5050206;28;20040;-70
2023/05/30 05:06:07;;;;;;;17.58;5.50;;;11.00;99.90;;;;;;5050798;28;20110;-70
2023/05/30 05:08:37;;;;;;;11.20;5.72;;;11.10;99.90;;;;;;5049810;28;20021;-70
2023/05/30 05:11:06;;;;;;;11.07;5.40;;;11.30;99.90;;;;;;5050601;28;20036;-72
2023/05/30 05:13:33;;;;;;;15.82;5.00;;;11.40;99.90;;;;;;5049867;28;20431;-71
2023/05/30 05:16:00;;;;;;;13.25;5.43;;;11.50;99.90;;;;;;5050338;28;20063;-72
2023/05/30 05:18:26;;;;;;;11.95;5.25;;;11.60;99.90;;;;;;5049638;28;20021;-70
2023/05/30 05:20:52;;;;;;;9.40;4.88;;;11.70;99.90;;;;;;5050265;28;20493;-71
2023/05/30 05:23:18;;;;;;;14.25;5.68;;;11.80;99.90;;;;;;5050111;28;20029;-70
2023/05/30 05:25:44;;;;;;;12.55;5.00;;;11.90;99.90;;;;;;5049322;28;20490;-70
2023/05/30 05:28:10;;;;;;;9.25;4.57;;;12.00;99.90;;;;;;5050365;28;20029;-70
2023/05/30 05:30:36;;;;;;;10.43;5.32;;;12.10;99.90;;;;;;5050066;28;20116;-70
2023/05/30 05:33:01;;;;;;;15.63;5.72;;;12.30;99.90;;;;;;5050720;28;20033;-70
2023/05/30 05:35:27;;;;;;;15.73;5.43;;;12.40;99.90;;;;;;5049424;28;20379;-70
2023/05/30 05:37:53;;;;;;;18.90;6.10;;;12.60;99.90;;;;;;5050107;28;20033;-70
2023/05/30 05:40:19;;;;;;;15.57;5.90;;;12.70;99.90;;;;;;5049989;28;20104;-70
2023/05/30 05:42:45;;;;;;;19.95;6.18;;;12.80;99.90;;;;;;5049684;28;20041;-70
2023/05/30 05:45:11;;;;;;;14.93;5.68;;;13.00;99.90;;;;;;5050156;28;20028;-71
2023/05/30 05:47:37;;;;;;;14.35;5.35;;;13.10;99.90;;;;;;5049168;28;20446;-70
2023/05/30 05:50:03;;;;;;;16.85;5.97;;;13.20;99.90;;;;;;5049861;28;20040;-70
2023/05/30 05:52:28;;;;;;;15.55;5.45;;;13.20;99.90;;;;;;5049156;28;20064;-70
2023/05/30 05:54:54;;;;;;;16.42;5.15;;;13.40;99.90;;;;;;5049977;28;20466;-71
2023/05/30 05:57:20;;;;;;;12.30;4.68;;;13.50;99.90;;;;;;5049727;28;20040;-70
2023/05/30 05:59:46;;;;;;;13.90;5.38;;;13.70;99.90;;;;;;5048010;28;20483;-70
2023/05/30 06:02:12;;;;;;;13.07;4.93;;;13.80;99.90;;;;;;5050310;28;20362;-70
2023/05/30 06:04:38;;;;;;;20.52;5.05;;;13.90;99.90;;;;;;5048981;28;20021;-70
2023/05/30 06:07:04;;;;;;;15.98;5.28;;;14.00;99.90;;;;;;5049623;28;20029;-71
2023/05/30 06:09:34;;;;;;;16.27;5.13;;;14.10;99.90;;;;;;5047607;28;20063;-71
2023/05/30 06:12:01;;;;;;;13.20;4.63;;;14.30;99.90;;;;;;5052718;28;20059;-70
2023/05/30 06:14:27;;;;;;;12.65;4.50;;;14.30;99.90;;;;;;5052988;28;20033;-72
2023/05/30 06:16:53;;;;;;;17.23;5.65;;;14.50;99.90;;;;;;5051846;28;20048;-71
2023/05/30 06:19:19;;;;;;;11.77;4.63;;;14.50;99.90;;;;;;5053373;28;20025;-70
2023/05/30 06:21:45;;;;;;;18.17;5.22;;;14.60;99.90;;;;;;5052972;28;20033;-71
2023/05/30 06:24:11;;;;;;;18.52;4.95;;;14.50;99.90;;;;;;5052932;28;20052;-71
2023/05/30 06:26:36;;;;;;;14.15;4.68;;;14.50;99.90;;;;;;5052743;28;20044;-71
2023/05/30 06:29:02;;;;;;;22.20;5.43;;;14.50;99.90;;;;;;5052644;28;20051;-71
2023/05/30 06:31:28;;;;;;;17.23;4.70;;;14.70;99.90;;;;;;5052571;28;20379;-71
2023/05/30 06:33:53;;;;;;;13.88;4.80;;;14.70;99.90;;;;;;5051738;28;20454;-71
2023/05/30 06:36:19;;;;;;;16.50;5.47;;;14.90;99.90;;;;;;5053238;28;20116;-71
2023/05/30 06:38:45;;;;;;;13.02;5.05;;;15.10;99.90;;;;;;5052607;28;20751;-71
2023/05/30 06:41:11;;;;;;;17.80;4.97;;;15.30;99.90;;;;;;5052926;28;20036;-71
2023/05/30 06:43:37;;;;;;;16.50;5.00;;;15.40;99.90;;;;;;5052434;28;20021;-71
2023/05/30 06:46:03;;;;;;;18.30;4.70;;;15.50;99.90;;;;;;5052920;28;20463;-71
2023/05/30 06:48:28;;;;;;;18.70;5.45;;;15.50;99.90;;;;;;5052304;28;20122;-71
2023/05/30 06:50:54;;;;;;;17.27;4.55;;;15.60;99.90;;;;;;5052740;28;20043;-71
2023/05/30 06:53:20;;;;;;;16.58;5.38;;;15.80;99.90;;;;;;5052730;28;20029;-70
2023/05/30 06:55:45;;;;;;;15.75;4.60;;;15.90;99.90;;;;;;5051597;28;20090;-70
2023/05/30 06:58:13;;;;;;;13.95;4.47;;;16.00;99.90;;;;;;5052451;28;20021;-71
2023/05/30 07:00:39;;;;;;;15.13;4.57;;;16.10;99.90;;;;;;5051901;28;20021;-70
2023/05/30 07:03:04;;;;;;;14.95;4.60;;;16.30;99.90;;;;;;5052679;28;20035;-71
2023/05/30 07:05:30;;;;;;;15.98;4.78;;;16.50;99.90;;;;;;5052303;28;20090;-71
2023/05/30 07:07:56;;;;;;;14.60;4.30;;;16.50;99.90;;;;;;5052596;28;20063;-71
2023/05/30 07:10:22;;;;;;;16.67;4.32;;;16.50;99.90;;;;;;5052036;28;20386;-71
2023/05/30 07:12:47;;;;;;;17.63;4.68;;;16.40;99.90;;;;;;5050732;28;20021;-71
2023/05/30 07:15:13;;;;;;;15.43;4.00;;;16.50;99.90;;;;;;5052255;28;20432;-71
2023/05/30 07:17:39;;;;;;;15.40;3.90;;;16.60;99.90;;;;;;5050186;28;20441;-71
2023/05/30 07:20:06;;;;;;;12.70;3.63;;;16.70;99.90;;;;;;5052293;28;20025;-71
2023/05/30 07:22:32;;;;;;;13.35;4.40;;;16.90;99.90;;;;;;5049893;28;20332;-71
2023/05/30 07:24:57;;;;;;;13.88;3.40;;;16.90;99.90;;;;;;5052316;28;20031;-71
2023/05/30 07:27:23;;;;;;;10.80;3.53;;;17.00;99.90;;;;;;5051832;28;20049;-70
2023/05/30 07:29:49;;;;;;;12.55;3.53;;;17.00;99.90;;;;;;5051362;28;20434;-70
2023/05/30 07:32:15;;;;;;;12.93;3.85;;;17.20;99.90;;;;;;5052023;28;20029;-71
2023/05/30 07:34:41;;;;;;;10.27;3.45;;;17.30;99.90;;;;;;5051373;28;20045;-71
2023/05/30 07:37:07;;;;;;;9.65;3.38;;;17.40;99.90;;;;;;5051983;28;20425;-71
2023/05/30 07:39:34;;;;;;;7.90;3.58;;;17.50;99.90;;;;;;5051680;28;20032;-71
2023/05/30 07:42:00;;;;;;;13.88;3.55;;;17.40;99.90;;;;;;5051532;28;20095;-71
2023/05/30 07:44:26;;;;;;;11.57;4.13;;;17.40;99.90;;;;;;5052015;28;20347;-71
2023/05/30 07:46:52;;;;;;;11.00;3.28;;;17.50;99.90;;;;;;5051020;28;20044;-71
2023/05/30 07:49:19;;;;;;;15.90;4.07;;;17.50;99.90;;;;;;5051537;28;20025;-71
2023/05/30 07:51:45;;;;;;;9.45;2.95;;;17.60;99.90;;;;;;5051207;28;20051;-71
2023/05/30 07:54:11;;;;;;;10.60;3.15;;;17.70;99.90;;;;;;5051970;28;20447;-71
2023/05/30 07:56:37;;;;;;;10.50;3.10;;;17.50;99.90;;;;;;5050877;28;20032;-72
2023/05/30 07:59:03;;;;;;;10.70;3.13;;;17.50;99.90;;;;;;5051833;28;20032;-71
2023/05/30 08:01:28;;;;;;;7.15;2.65;;;17.60;99.90;;;;;;5051443;28;20116;-72
2023/05/30 08:03:54;;;;;;;10.55;2.70;;;17.60;99.90;;;;;;5051295;28;20067;-72
2023/05/30 08:06:20;;;;;;;11.88;3.20;;;17.80;99.90;;;;;;5050134;28;20194;-71
2023/05/30 08:08:46;;;;;;;9.73;3.03;;;17.90;99.90;;;;;;5051132;28;20025;-72
2023/05/30 08:11:14;;;;;;;9.95;3.22;;;18.00;99.90;;;;;;5051520;28;20060;-72
2023/05/30 08:13:41;;;;;;;11.18;3.33;;;18.00;99.90;;;;;;5051154;28;20147;-72
2023/05/30 08:16:10;;;;;;;10.68;2.85;;;17.90;99.90;;;;;;5051532;28;20033;-72
2023/05/30 08:18:37;;;;;;;12.75;3.25;;;17.90;99.90;;;;;;5051073;28;20373;-72
2023/05/30 08:21:03;;;;;;;9.55;3.00;;;17.90;99.90;;;;;;5049744;28;20029;-73
2023/05/30 08:23:29;;;;;;;11.10;2.80;;;17.80;99.90;;;;;;5051090;28;20154;-72
2023/05/30 08:25:56;;;;;;;12.70;3.17;;;17.80;99.90;;;;;;5050316;28;20080;-73
2023/05/30 08:28:21;;;;;;;7.18;2.53;;;18.00;99.90;;;;;;5050914;28;20090;-72
2023/05/30 08:30:48;;;;;;;8.27;2.85;;;18.20;99.90;;;;;;5050495;28;20029;-72
2023/05/30 08:33:18;;;;;;;17.48;3.55;;;18.20;99.90;;;;;;5050203;28;20025;-72
2023/05/30 08:35:45;;;;;;;8.70;3.03;;;18.30;99.90;;;;;;5050457;28;20102;-73
2023/05/30 08:38:11;;;;;;;8.60;2.65;;;18.20;99.90;;;;;;5051145;28;20020;-72
2023/05/30 08:40:43;;;;;;;11.48;3.20;;;18.20;99.90;;;;;;5050101;28;20028;-72
2023/05/30 08:43:08;;;;;;;10.40;3.17;;;18.20;99.90;;;;;;5050937;28;20028;-72
2023/05/30 08:45:34;;;;;;;8.07;2.85;;;18.20;99.90;;;;;;5050186;28;20028;-74
2023/05/30 08:48:01;;;;;;;9.05;2.80;;;18.20;99.90;;;;;;5050836;28;20111;-72
2023/05/30 08:50:29;;;;;;;12.90;3.53;;;18.20;99.90;;;;;;5050688;28;20063;-72
2023/05/30 08:53:02;;;;;;;9.48;3.13;;;18.30;99.90;;;;;;5049896;28;20417;-74
2023/05/30 08:55:34;;;;;;;12.40;3.00;;;18.30;99.90;;;;;;5050830;28;20078;-71
2023/05/30 08:58:29;;;;;;;8.57;3.05;;;17.90;99.90;;;;;;5050277;28;20072;-71
2023/05/30 09:00:56;;;;;;;13.48;3.35;;;17.90;99.90;;;;;;5048370;28;20190;-73
2023/05/30 09:03:22;;;;;;;13.07;3.08;;;18.10;99.90;;;;;;5050606;28;20036;-73
2023/05/30 09:05:49;;;;;;;11.02;3.63;;;18.20;99.90;;;;;;5048265;28;20047;-72
2023/05/30 09:08:16;;;;;;;11.07;3.40;;;18.20;99.90;;;;;;5050443;28;20040;-73
2023/05/30 09:10:48;;;;;;;17.13;3.78;;;18.30;99.90;;;;;;5050124;28;20029;-73
2023/05/30 09:13:15;;;;;;;13.25;3.42;;;18.40;99.90;;;;;;5049779;28;20032;-72
2023/05/30 09:15:40;;;;;;;11.23;3.15;;;18.50;99.90;;;;;;5048617;28;20124;-73
2023/05/30 09:18:06;;;;;;;13.00;3.72;;;18.50;99.90;;;;;;5050254;28;20037;-72
2023/05/30 09:20:32;;;;;;;15.63;4.03;;;18.30;99.90;;;;;;5050369;28;20471;-73
2023/05/30 09:23:01;;;;;;;13.23;2.90;;;18.40;99.90;;;;;;5049641;28;20355;-73
2023/05/30 09:25:41;;;;;;;11.90;3.67;;;18.30;99.90;;;;;;5049860;28;20386;-73
2023/05/30 09:28:07;;;;;;;10.77;4.35;;;18.20;99.90;;;;;;5050090;28;20033;-72
2023/05/30 09:30:32;;;;;;;12.15;3.75;;;18.20;99.90;;;;;;5050093;28;20021;-73
2023/05/30 09:33:02;;;;;;;10.32;3.40;;;18.10;99.90;;;;;;5049440;28;20029;-71
2023/05/30 09:35:28;;;;;;;11.35;3.70;;;18.20;99.90;;;;;;5050421;28;20025;-72
2023/05/30 09:37:54;;;;;;;12.65;3.38;;;18.10;99.90;;;;;;5049498;28;20033;-71
2023/05/30 09:40:22;;;;;;;13.85;3.35;;;18.20;99.90;;;;;;5049179;28;20044;-72
2023/05/30 09:42:52;;;;;;;16.58;3.60;;;18.30;99.90;;;;;;5049519;28;20028;-71
2023/05/30 09:45:21;;;;;;;14.90;3.90;;;18.10;99.90;;;;;;5051636;28;20127;-72
2023/05/30 09:47:48;;;;;;;12.20;3.58;;;18.20;99.90;;;;;;5053977;28;20033;-72
2023/05/30 09:50:17;;;;;;;9.95;3.28;;;17.90;99.90;;;;;;5054130;28;20033;-72
2023/05/30 09:52:43;;;;;;;12.45;3.75;;;18.10;99.90;;;;;;5053357;28;20075;-71
2023/05/30 09:55:13;;;;;;;16.20;3.78;;;18.30;99.90;;;;;;5052675;28;20024;-72
2023/05/30 09:57:40;;;;;;;14.52;3.50;;;18.50;99.90;;;;;;5053427;28;20363;-74
2023/05/30 10:00:09;;;;;;;13.60;3.67;;;18.60;99.90;;;;;;5052602;28;20021;-72
2023/05/30 10:02:36;;;;;;;8.93;3.63;;;18.60;99.90;;;;;;5053738;28;20040;-71
2023/05/30 10:05:03;;;;;;;11.32;3.58;;;18.70;99.90;;;;;;5053257;28;20028;-72
2023/05/30 10:07:30;;;;;;;11.23;3.78;;;18.80;99.90;;;;;;5053891;28;20071;-73
2023/05/30 10:09:57;;;;;;;11.70;3.47;;;18.80;99.90;;;;;;5052964;28;20025;-72
2023/05/30 10:12:23;;;;;;;15.13;4.38;;;18.70;99.90;;;;;;5053958;28;20458;-73
2023/05/30 10:14:49;;;;;;;12.50;3.72;;;18.80;99.90;;;;;;5052696;28;20541;-73
2023/05/30 10:17:18;;;;;;;11.43;3.30;;;18.70;99.90;;;;;;5053277;28;20067;-72
2023/05/30 10:20:02;;;;;;;15.57;3.92;;;18.80;99.90;;;;;;5053024;28;20028;-72
2023/05/30 10:22:30;;;;;;;14.60;4.38;;;18.90;99.90;;;;;;5053514;28;20021;-72
2023/05/30 10:24:59;;;;;;;13.27;3.72;;;18.90;99.90;;;;;;5052850;28;20021;-72
2023/05/30 10:27:30;;;;;;;12.32;4.10;;;19.00;99.90;;;;;;5053066;28;20059;-72
2023/05/30 10:30:05;;;;;;;12.90;3.85;;;18.80;99.90;;;;;;5052176;28;20063;-72
2023/05/30 10:32:35;;;;;;;11.05;3.70;;;18.80;99.90;;;;;;5052734;28;20033;-72
2023/05/30 10:35:15;;;;;;;11.30;3.47;;;18.90;99.90;;;;;;5052181;28;20116;-73
2023/05/30 10:37:41;;;;;;;12.85;3.60;;;18.90;99.90;;;;;;5052298;28;20170;-75
2023/05/30 10:40:23;;;;;;;15.02;3.85;;;18.80;99.90;;;;;;5052533;28;20025;-73
2023/05/30 10:43:37;;;;;;;14.10;3.38;;;18.70;99.90;;;;;;5052017;28;20065;-72
2023/05/30 10:46:25;;;;;;;9.90;3.50;;;18.70;99.90;;;;;;5051984;28;20046;-72
2023/05/30 10:49:09;;;;;;;14.82;3.58;;;18.60;99.90;;;;;;5051852;28;20063;-74
2023/05/30 10:52:05;;;;;;;14.38;4.35;;;18.60;99.90;;;;;;5052570;28;20021;-72
2023/05/30 10:54:42;;;;;;;13.40;3.70;;;18.50;99.90;;;;;;5052243;28;20031;-72
2023/05/30 10:57:24;;;;;;;14.98;4.07;;;18.30;99.90;;;;;;5051307;28;20063;-72
2023/05/30 10:59:52;;;;;;;14.57;4.05;;;18.00;99.90;;;;;;5051246;28;20049;-72
2023/05/30 11:02:34;;;;;;;25.98;7.30;;;18.10;99.90;;;;;;5052427;28;20100;-72
2023/05/30 11:05:06;;;;;;;14.50;4.27;;;18.10;99.90;;;;;;5051938;28;20036;-73
2023/05/30 11:07:34;;;;;;;11.98;3.78;;;18.00;99.90;;;;;;5052159;28;20452;-71
2023/05/30 11:10:06;;;;;;;15.52;4.07;;;18.00;99.90;;;;;;5051563;28;20461;-73
2023/05/30 11:12:32;;;;;;;13.38;3.50;;;18.00;99.90;;;;;;5052346;28;20110;-72
2023/05/30 11:14:59;;;;;;;10.85;3.55;;;17.90;99.90;;;;;;5051584;28;20124;-73
2023/05/30 11:17:34;;;;;;;11.65;3.40;;;18.00;99.90;;;;;;5051880;28;20048;-72
2023/05/30 11:20:07;;;;;;;10.45;3.90;;;18.00;99.90;;;;;;5051350;28;20033;-73
2023/05/30 11:22:33;;;;;;;14.93;3.70;;;17.90;99.90;;;;;;5051839;28;20108;-74
2023/05/30 11:25:23;;;;;;;16.77;3.63;;;18.10;99.90;;;;;;5051239;28;20104;-73
2023/05/30 11:28:04;;;;;;;10.48;4.07;;;18.20;99.90;;;;;;5051153;28;20051;-73
2023/05/30 11:30:37;;;;;;;14.40;3.80;;;18.20;99.90;;;;;;5051761;28;20029;-72
2023/05/30 11:33:10;;;;;;;16.48;3.95;;;18.00;99.90;;;;;;5051167;28;20040;-73
2023/05/30 11:35:36;;;;;;;15.88;4.28;;;18.10;99.90;;;;;;5051587;28;20029;-72
2023/05/30 11:38:02;;;;;;;14.07;3.50;;;18.10;99.90;;;;;;5049586;28;20064;-74
2023/05/30 11:40:28;;;;;;;8.65;3.05;;;18.00;99.90;;;;;;5051469;28;20036;-73
2023/05/30 11:42:58;;;;;;;8.32;3.58;;;18.20;99.90;;;;;;5050903;28;20028;-73
2023/05/30 11:45:26;;;;;;;9.35;3.15;;;18.20;99.90;;;;;;5051356;28;20025;-72
2023/05/30 11:47:51;;;;;;;8.18;3.45;;;18.30;99.90;;;;;;5050742;28;20028;-73
2023/05/30 11:50:21;;;;;;;8.13;3.20;;;18.30;99.90;;;;;;5049727;28;20048;-72
2023/05/30 11:52:47;;;;;;;10.80;3.33;;;18.30;99.90;;;;;;5050957;28;20025;-76
2023/05/30 11:55:12;;;;;;;13.40;3.80;;;18.40;99.90;;;;;;5050831;28;20029;-73
2023/05/30 11:57:38;;;;;;;13.75;3.50;;;18.40;99.90;;;;;;5050952;28;20078;-73
2023/05/30 12:00:11;;;;;;;10.98;3.15;;;18.40;99.90;;;;;;5048855;28;20104;-73
2023/05/30 12:02:38;;;;;;;10.02;3.30;;;18.40;99.90;;;;;;5051361;28;20032;-73
2023/05/30 12:05:04;;;;;;;14.73;3.50;;;18.40;99.90;;;;;;5050696;28;20308;-73
2023/05/30 12:07:32;;;;;;;8.68;3.08;;;18.50;99.90;;;;;;5050984;28;20029;-73
2023/05/30 12:09:58;;;;;;;11.38;3.75;;;18.50;99.90;;;;;;5049337;28;20135;-73
2023/05/30 12:12:23;;;;;;;10.98;3.50;;;18.40;99.90;;;;;;5051285;28;20049;-73
2023/05/30 12:14:53;;;;;;;9.50;2.97;;;18.20;99.90;;;;;;5049670;28;20033;-73
2023/05/30 12:17:21;;;;;;;6.90;2.55;;;18.20;99.90;;;;;;5050662;28;20060;-73
2023/05/30 12:20:09;;;;;;;15.27;3.30;;;18.10;99.90;;;;;;5050648;28;20147;-75
2023/05/30 12:22:35;;;;;;;15.70;3.85;;;18.20;99.90;;;;;;5050779;28;20079;-73
2023/05/30 12:25:11;;;;;;;14.13;3.40;;;18.30;99.90;;;;;;5049820;28;20025;-73
2023/05/30 12:27:43;;;;;;;11.25;3.28;;;18.20;99.90;;;;;;5050505;28;20029;-73
2023/05/30 12:30:18;;;;;;;7.72;3.15;;;18.20;99.90;;;;;;5049775;28;20051;-73
2023/05/30 12:32:47;;;;;;;14.63;3.92;;;18.10;99.90;;;;;;5050490;28;20021;-72
2023/05/30 12:35:14;;;;;;;9.52;3.60;;;18.20;99.90;;;;;;5050007;28;20017;-73
2023/05/30 12:37:39;;;;;;;14.13;3.58;;;17.90;99.90;;;;;;5050371;28;20154;-72
2023/05/30 12:40:06;;;;;;;14.02;4.25;;;17.90;99.90;;;;;;5049389;28;20057;-71
2023/05/30 12:42:34;;;;;;;8.45;3.15;;;17.90;99.90;;;;;;5050372;28;20436;-72